Main page
METAR-TAF:

METAR-TAF

Airports :

Cruzeiro do Sul International Airport

Cruzeiro do Sul, Acre, Brazil

latitude: 07-38S, longitude: 072-40W, elevation: 170 m

Current weather observation

The report was made 35 minutes ago, at 16:00 UTC
Wind 8 kt from the North/Northwest
Temperature 32°C
Humidity 67%
Pressure 1011 hPa
Visibility 10 km or more
Scattered clouds at a height of 2500 ft

METAR: SBCZ 211600Z 34008KT 9999 SCT025 32/25 Q1011

Time: 11:35 (16:35 UTC)


TAF: missing

Weather observations and forecasts of more than 4000 airports (METAR and TAF reports).

The available stations are represented by yellow and red dots on the map.

Hover mouse over dot to see the name of the station.

Then click to see weather observations and forecasts.

To change the map : click on the green buttons with a black cross to zoom in, on the green button with a dash to zoom out, or on the green arrows for adjacent maps.


METAR-TAF: